Time;durP1;ratioP1;P1;durP2;ratioP2;P2;SDS_P1;SDS_P2;PMS_P1;PMS_P2;Temp;Humidity;BMP_temperature;BMP_pressure;BME280_temperature;BME280_humidity;BME280_pressure;Samples;Min_cycle;Max_cycle;Signal;HPM_P1;HPM_P2
2023/04/26 00:01:34;;;;;;;8.73;4.20;;;;;;;;;;4978468;28;20022;-74
2023/04/26 00:04:01;;;;;;;11.85;3.95;;;;;;;;;;4984106;28;20027;-74
2023/04/26 00:06:27;;;;;;;5.63;2.75;;;;;;;;;;4971766;28;20497;-74
2023/04/26 00:08:53;;;;;;;7.53;3.53;;;;;;;;;;4978793;28;20031;-75
2023/04/26 00:11:19;;;;;;;7.40;2.97;;;;;;;;;;4991236;28;20081;-76
2023/04/26 00:13:45;;;;;;;7.88;3.28;;;;;;;;;;4984604;28;20026;-76
2023/04/26 00:16:13;;;;;;;9.13;3.08;;;;;;;;;;4984251;28;20038;-75
2023/04/26 00:18:39;;;;;;;16.42;3.70;;;;;;;;;;4991053;28;20034;-75
2023/04/26 00:21:05;;;;;;;4.57;2.40;;;;;;;;;;4978870;28;20035;-75
2023/04/26 00:23:31;;;;;;;5.32;2.72;;;;;;;;;;4989052;28;20022;-76
2023/04/26 00:25:57;;;;;;;5.93;2.88;;;;;;;;;;4985030;28;20037;-75
2023/04/26 00:28:23;;;;;;;5.70;2.63;;;;;;;;;;4983906;28;20037;-75
2023/04/26 00:30:50;;;;;;;7.05;2.83;;;;;;;;;;4978716;28;20030;-75
2023/04/26 00:33:16;;;;;;;5.70;2.60;;;;;;;;;;4991169;28;20424;-76
2023/04/26 00:35:42;;;;;;;8.68;2.90;;;;;;;;;;4982687;28;20029;-77
2023/04/26 00:38:08;;;;;;;9.70;3.35;;;;;;;;;;4966419;28;20107;-75
2023/04/26 00:40:34;;;;;;;9.10;2.90;;;;;;;;;;4989563;28;20747;-73
2023/04/26 00:43:00;;;;;;;7.15;2.40;;;;;;;;;;4978850;28;20026;-74
2023/04/26 00:45:26;;;;;;;8.40;3.03;;;;;;;;;;4990067;28;20098;-75
2023/04/26 00:47:53;;;;;;;4.97;2.60;;;;;;;;;;4986005;28;20035;-74
2023/04/26 00:50:19;;;;;;;7.78;3.25;;;;;;;;;;4987220;28;20022;-75
2023/04/26 00:52:46;;;;;;;8.60;3.17;;;;;;;;;;4979016;28;20105;-74
2023/04/26 00:55:13;;;;;;;5.68;3.30;;;;;;;;;;4991095;28;20031;-75
2023/04/26 00:57:39;;;;;;;8.50;3.65;;;;;;;;;;4981670;28;20052;-74
2023/04/26 01:00:06;;;;;;;9.15;3.15;;;;;;;;;;4984347;28;20158;-74
2023/04/26 01:02:32;;;;;;;7.80;3.38;;;;;;;;;;4989172;28;20101;-75
2023/04/26 01:04:58;;;;;;;10.93;3.22;;;;;;;;;;4979039;28;20031;-75
2023/04/26 01:07:24;;;;;;;7.85;3.10;;;;;;;;;;4990077;28;20037;-75
2023/04/26 01:09:51;;;;;;;7.63;3.67;;;;;;;;;;4983198;28;20030;-75
2023/04/26 01:12:17;;;;;;;6.28;3.03;;;;;;;;;;4982636;28;20023;-74
2023/04/26 01:14:43;;;;;;;7.72;3.55;;;;;;;;;;4990234;28;20038;-75
2023/04/26 01:17:09;;;;;;;5.07;2.67;;;;;;;;;;4977665;28;20014;-74
2023/04/26 01:19:39;;;;;;;8.43;3.33;;;;;;;;;;4987437;28;20123;-74
2023/04/26 01:22:05;;;;;;;6.45;3.88;;;;;;;;;;4984874;28;20034;-74
2023/04/26 01:24:32;;;;;;;8.48;3.00;;;;;;;;;;4980060;28;20049;-75
2023/04/26 01:26:58;;;;;;;8.00;4.05;;;;;;;;;;4990486;28;20018;-77
2023/04/26 01:29:24;;;;;;;8.55;3.30;;;;;;;;;;4979543;28;20358;-75
2023/04/26 01:31:50;;;;;;;10.50;3.53;;;;;;;;;;4985578;28;20030;-75
2023/04/26 01:34:16;;;;;;;11.20;3.88;;;;;;;;;;4985929;28;20022;-75
2023/04/26 01:36:42;;;;;;;5.57;2.83;;;;;;;;;;4978514;28;20445;-75
2023/04/26 01:39:08;;;;;;;6.80;3.67;;;;;;;;;;4990205;28;20031;-75
2023/04/26 01:41:34;;;;;;;8.88;3.67;;;;;;;;;;4980452;28;20022;-73
2023/04/26 01:44:00;;;;;;;10.05;3.08;;;;;;;;;;4983983;28;20050;-74
2023/04/26 01:46:26;;;;;;;9.23;3.55;;;;;;;;;;4979285;28;20097;-74
2023/04/26 01:48:52;;;;;;;10.50;3.35;;;;;;;;;;4989745;28;20117;-73
2023/04/26 01:51:18;;;;;;;13.23;3.45;;;;;;;;;;4960919;28;20018;-73
2023/04/26 01:53:44;;;;;;;9.45;3.00;;;;;;;;;;4987935;28;20019;-73
2023/04/26 01:56:11;;;;;;;10.32;3.13;;;;;;;;;;4982459;28;20106;-73
2023/04/26 01:58:36;;;;;;;6.82;3.22;;;;;;;;;;4988781;28;20035;-74
2023/04/26 02:01:07;;;;;;;6.40;3.35;;;;;;;;;;4977683;28;20042;-75
2023/04/26 02:03:33;;;;;;;5.78;2.63;;;;;;;;;;4987953;28;20022;-73
2023/04/26 02:05:59;;;;;;;11.10;3.88;;;;;;;;;;4983796;28;20038;-73
2023/04/26 02:08:25;;;;;;;5.18;2.92;;;;;;;;;;4979724;28;20019;-73
2023/04/26 02:10:51;;;;;;;4.65;2.70;;;;;;;;;;4989777;28;20026;-74
2023/04/26 02:13:18;;;;;;;8.85;3.22;;;;;;;;;;4977480;28;20404;-73
2023/04/26 02:15:48;;;;;;;8.05;3.55;;;;;;;;;;4985389;28;20110;-74
2023/04/26 02:18:14;;;;;;;7.05;3.40;;;;;;;;;;4984936;28;20023;-73
2023/04/26 02:20:44;;;;;;;8.52;3.55;;;;;;;;;;4977896;28;20027;-74
2023/04/26 02:23:11;;;;;;;9.90;4.55;;;;;;;;;;4991262;28;20073;-74
2023/04/26 02:25:37;;;;;;;10.75;3.58;;;;;;;;;;4985376;28;20088;-76
2023/04/26 02:28:03;;;;;;;5.95;3.30;;;;;;;;;;4992671;28;20062;-75
2023/04/26 02:30:30;;;;;;;5.07;3.25;;;;;;;;;;4994727;28;20074;-74
2023/04/26 02:32:56;;;;;;;8.05;3.17;;;;;;;;;;4985748;28;20026;-74
2023/04/26 02:35:23;;;;;;;7.43;3.08;;;;;;;;;;4996551;28;20411;-74
2023/04/26 02:37:51;;;;;;;8.00;3.08;;;;;;;;;;4972630;28;20117;-76
2023/04/26 02:40:20;;;;;;;9.43;3.28;;;;;;;;;;4965916;28;20019;-74
2023/04/26 02:42:47;;;;;;;7.72;3.40;;;;;;;;;;4973135;28;20062;-75
2023/04/26 02:45:13;;;;;;;7.00;3.80;;;;;;;;;;4989037;28;20402;-75
2023/04/26 02:47:39;;;;;;;9.27;3.67;;;;;;;;;;4970035;28;20027;-73
2023/04/26 02:50:09;;;;;;;7.32;3.33;;;;;;;;;;4983408;28;20038;-74
2023/04/26 02:52:36;;;;;;;8.95;3.58;;;;;;;;;;4977920;28;20023;-73
2023/04/26 02:55:05;;;;;;;7.03;3.15;;;;;;;;;;4988942;28;20031;-74
2023/04/26 02:57:31;;;;;;;8.68;3.72;;;;;;;;;;4960922;28;20019;-74
2023/04/26 02:59:58;;;;;;;5.25;3.90;;;;;;;;;;4982873;28;20023;-73
2023/04/26 03:02:24;;;;;;;6.45;3.00;;;;;;;;;;4985499;28;20386;-75
2023/04/26 03:04:50;;;;;;;7.22;3.53;;;;;;;;;;4975950;28;20085;-76
2023/04/26 03:07:16;;;;;;;7.05;3.53;;;;;;;;;;4987986;28;20031;-75
2023/04/26 03:09:42;;;;;;;9.48;3.63;;;;;;;;;;4962490;28;20447;-74
2023/04/26 03:12:08;;;;;;;9.07;4.05;;;;;;;;;;4981074;28;20102;-76
2023/04/26 03:14:35;;;;;;;9.15;3.70;;;;;;;;;;4986714;28;20086;-74
2023/04/26 03:17:01;;;;;;;12.07;4.53;;;;;;;;;;4974076;28;20026;-73
2023/04/26 03:19:27;;;;;;;6.63;3.92;;;;;;;;;;4977739;28;20022;-72
2023/04/26 03:21:56;;;;;;;11.05;4.10;;;;;;;;;;4983060;28;20485;-72
2023/04/26 03:24:22;;;;;;;9.50;3.72;;;;;;;;;;4968154;28;20030;-74
2023/04/26 03:26:48;;;;;;;7.55;3.80;;;;;;;;;;4976232;28;20027;-75
2023/04/26 03:29:15;;;;;;;8.27;3.55;;;;;;;;;;4988108;28;20593;-74
2023/04/26 03:31:41;;;;;;;10.52;4.45;;;;;;;;;;4979670;28;20385;-73
2023/04/26 03:34:08;;;;;;;14.55;3.85;;;;;;;;;;4981314;28;20027;-74
2023/04/26 03:36:34;;;;;;;8.63;3.53;;;;;;;;;;4987056;28;20026;-75
2023/04/26 03:39:00;;;;;;;14.02;4.40;;;;;;;;;;4979723;28;20065;-75
2023/04/26 03:41:26;;;;;;;9.80;3.78;;;;;;;;;;4991237;28;20042;-76
2023/04/26 03:43:52;;;;;;;8.45;3.67;;;;;;;;;;4984987;28;20443;-75
2023/04/26 03:46:18;;;;;;;8.70;2.97;;;;;;;;;;4990677;28;20515;-73
2023/04/26 03:48:44;;;;;;;10.20;3.42;;;;;;;;;;4979697;28;20062;-75
2023/04/26 03:51:09;;;;;;;7.32;3.22;;;;;;;;;;4992317;28;20053;-74
2023/04/26 03:53:36;;;;;;;10.07;3.10;;;;;;;;;;4982438;28;20392;-74
2023/04/26 03:56:02;;;;;;;9.98;2.92;;;;;;;;;;4985547;28;20572;-74
2023/04/26 03:58:28;;;;;;;10.32;3.58;;;;;;;;;;4989331;28;20114;-75
2023/04/26 04:00:57;;;;;;;10.63;3.72;;;;;;;;;;4979199;28;20077;-75
2023/04/26 04:03:23;;;;;;;10.63;3.72;;;;;;;;;;4990751;28;20054;-73
2023/04/26 04:05:49;;;;;;;10.30;3.83;;;;;;;;;;4984335;28;20037;-74
2023/04/26 04:08:15;;;;;;;8.95;2.83;;;;;;;;;;4983304;28;20098;-74
2023/04/26 04:10:41;;;;;;;9.77;3.05;;;;;;;;;;4991158;28;20037;-74
2023/04/26 04:13:08;;;;;;;14.77;3.22;;;;;;;;;;4975744;28;20034;-74
2023/04/26 04:15:33;;;;;;;14.90;3.80;;;;;;;;;;4982039;28;20238;-74
2023/04/26 04:17:59;;;;;;;11.15;3.10;;;;;;;;;;4985139;28;20023;-74
2023/04/26 04:20:25;;;;;;;11.27;3.13;;;;;;;;;;4988840;28;20022;-73
2023/04/26 04:22:52;;;;;;;8.93;3.33;;;;;;;;;;4978738;28;20023;-73
2023/04/26 04:25:21;;;;;;;10.50;2.88;;;;;;;;;;4990894;28;20014;-74
2023/04/26 04:27:48;;;;;;;7.95;3.20;;;;;;;;;;4983232;28;20098;-74
2023/04/26 04:30:14;;;;;;;10.55;2.72;;;;;;;;;;4983529;28;20026;-73
2023/04/26 04:32:43;;;;;;;11.20;2.63;;;;;;;;;;4990298;28;20027;-73
2023/04/26 04:35:09;;;;;;;8.20;2.30;;;;;;;;;;4978876;28;20022;-74
2023/04/26 04:37:35;;;;;;;8.68;2.75;;;;;;;;;;4970485;28;20496;-73
2023/04/26 04:40:01;;;;;;;12.30;3.00;;;;;;;;;;4985149;28;20034;-73
2023/04/26 04:42:27;;;;;;;10.48;3.13;;;;;;;;;;4981768;28;20111;-74
2023/04/26 04:44:54;;;;;;;10.05;2.75;;;;;;;;;;4973944;28;20489;-74
2023/04/26 04:47:20;;;;;;;13.00;3.15;;;;;;;;;;4986045;28;20086;-73
2023/04/26 04:49:46;;;;;;;16.75;2.97;;;;;;;;;;4982277;28;20026;-73
2023/04/26 04:52:12;;;;;;;9.52;3.63;;;;;;;;;;4983018;28;20031;-73
2023/04/26 04:54:38;;;;;;;9.20;2.70;;;;;;;;;;4989779;28;20026;-74
2023/04/26 04:57:05;;;;;;;9.68;2.63;;;;;;;;;;4978103;28;20085;-74
2023/04/26 04:59:32;;;;;;;13.02;2.95;;;;;;;;;;4988723;28;20027;-75
2023/04/26 05:01:58;;;;;;;11.70;2.70;;;;;;;;;;4984867;28;20031;-75
2023/04/26 05:04:24;;;;;;;8.98;3.00;;;;;;;;;;4981733;28;20027;-75
2023/04/26 05:06:50;;;;;;;12.43;2.80;;;;;;;;;;4972263;28;20041;-75
2023/04/26 05:09:16;;;;;;;8.77;2.50;;;;;;;;;;4988742;28;20027;-75
2023/04/26 05:11:42;;;;;;;8.20;3.38;;;;;;;;;;4980971;28;20023;-75
2023/04/26 05:14:08;;;;;;;9.18;2.80;;;;;;;;;;4982098;28;20038;-75
2023/04/26 05:16:34;;;;;;;8.35;2.40;;;;;;;;;;4988816;28;20496;-76
2023/04/26 05:19:00;;;;;;;9.55;2.65;;;;;;;;;;4977785;28;20027;-76
2023/04/26 05:21:26;;;;;;;8.65;2.35;;;;;;;;;;4989840;28;20111;-76
2023/04/26 05:23:52;;;;;;;10.38;3.22;;;;;;;;;;4983562;28;20058;-76
2023/04/26 05:26:19;;;;;;;8.75;3.45;;;;;;;;;;4981262;28;20023;-76
2023/04/26 05:28:45;;;;;;;8.70;2.70;;;;;;;;;;4989535;28;20026;-76
2023/04/26 05:31:11;;;;;;;9.45;2.90;;;;;;;;;;4977663;28;20010;-76
2023/04/26 05:34:00;;;;;;;5.63;2.42;;;;;;;;;;4987079;28;20025;-74
2023/04/26 05:36:27;;;;;;;8.60;2.97;;;;;;;;;;4978493;28;20042;-75
2023/04/26 05:38:53;;;;;;;9.13;2.75;;;;;;;;;;4975978;28;20669;-75
2023/04/26 05:41:19;;;;;;;8.38;3.15;;;;;;;;;;4973803;28;20484;-75
2023/04/26 05:43:46;;;;;;;8.15;2.78;;;;;;;;;;4973494;28;20030;-74
2023/04/26 05:46:12;;;;;;;10.05;2.95;;;;;;;;;;4987831;28;20084;-76
2023/04/26 05:48:38;;;;;;;10.15;3.25;;;;;;;;;;4977192;28;20035;-76
2023/04/26 05:51:04;;;;;;;7.00;2.67;;;;;;;;;;4991708;28;20026;-76
2023/04/26 05:53:30;;;;;;;6.28;3.15;;;;;;;;;;4979149;28;20022;-76
2023/04/26 05:55:56;;;;;;;8.13;3.20;;;;;;;;;;4984018;28;20130;-78
2023/04/26 05:58:22;;;;;;;5.03;2.45;;;;;;;;;;4971069;28;20452;-76
2023/04/26 06:00:48;;;;;;;8.98;2.97;;;;;;;;;;4971007;28;20026;-76
2023/04/26 06:03:15;;;;;;;7.82;2.65;;;;;;;;;;4971470;28;20034;-76
2023/04/26 06:05:41;;;;;;;11.05;3.08;;;;;;;;;;4971792;28;20038;-76
2023/04/26 06:08:07;;;;;;;5.68;2.85;;;;;;;;;;4970974;28;20549;-77
2023/04/26 06:10:33;;;;;;;8.23;2.40;;;;;;;;;;4971728;28;20041;-76
2023/04/26 06:13:08;;;;;;;14.48;2.97;;;;;;;;;;4971912;28;20031;-75
2023/04/26 06:15:34;;;;;;;9.75;3.13;;;;;;;;;;4973439;28;20080;-76
2023/04/26 06:18:00;;;;;;;7.63;2.65;;;;;;;;;;4972591;28;20031;-76
2023/04/26 06:20:27;;;;;;;18.25;4.10;;;;;;;;;;4989316;28;20022;-76
2023/04/26 06:22:53;;;;;;;11.13;3.25;;;;;;;;;;4993763;28;20034;-76
2023/04/26 06:25:19;;;;;;;8.13;2.40;;;;;;;;;;4992849;28;20546;-76
2023/04/26 06:27:45;;;;;;;8.18;2.78;;;;;;;;;;4992753;28;20030;-76
2023/04/26 06:30:11;;;;;;;12.15;2.90;;;;;;;;;;4992860;28;20026;-76
2023/04/26 06:32:38;;;;;;;9.15;2.95;;;;;;;;;;4991554;28;20026;-76
2023/04/26 06:35:04;;;;;;;11.77;2.25;;;;;;;;;;4993203;28;20029;-76
2023/04/26 06:37:30;;;;;;;12.30;3.00;;;;;;;;;;4991728;28;20886;-75
2023/04/26 06:39:56;;;;;;;11.43;2.45;;;;;;;;;;4993445;28;20030;-76
2023/04/26 06:42:22;;;;;;;10.82;2.97;;;;;;;;;;4991267;28;20022;-76
2023/04/26 06:44:48;;;;;;;10.25;2.42;;;;;;;;;;4992563;28;20105;-76
2023/04/26 06:47:14;;;;;;;11.55;3.25;;;;;;;;;;4991973;28;20022;-76
2023/04/26 06:49:41;;;;;;;9.77;2.67;;;;;;;;;;4992202;28;20110;-75
2023/04/26 06:52:07;;;;;;;10.68;2.85;;;;;;;;;;4992430;28;20026;-76
2023/04/26 06:54:33;;;;;;;14.82;3.03;;;;;;;;;;4991987;28;20034;-76
2023/04/26 06:56:59;;;;;;;10.18;2.40;;;;;;;;;;4974389;28;20404;-78
2023/04/26 06:59:25;;;;;;;17.67;3.90;;;;;;;;;;4991853;28;20033;-76
2023/04/26 07:01:53;;;;;;;8.80;2.78;;;;;;;;;;4992148;28;20034;-76
2023/04/26 07:04:19;;;;;;;8.52;2.65;;;;;;;;;;4992165;28;20543;-76
2023/04/26 07:06:45;;;;;;;8.82;2.00;;;;;;;;;;4992006;28;20485;-76
2023/04/26 07:09:12;;;;;;;5.53;2.75;;;;;;;;;;4991300;28;20033;-76
2023/04/26 07:11:38;;;;;;;14.40;2.78;;;;;;;;;;4991701;28;20049;-75
2023/04/26 07:14:04;;;;;;;14.85;3.42;;;;;;;;;;4991773;28;20038;-76
2023/04/26 07:16:30;;;;;;;11.10;2.80;;;;;;;;;;4992006;28;20038;-75
2023/04/26 07:18:57;;;;;;;8.15;2.60;;;;;;;;;;4991453;28;20033;-75
2023/04/26 07:21:24;;;;;;;7.65;2.40;;;;;;;;;;4990851;28;20026;-75
2023/04/26 07:23:53;;;;;;;9.73;3.05;;;;;;;;;;4974296;28;20030;-76
2023/04/26 07:26:19;;;;;;;11.90;3.00;;;;;;;;;;4974638;28;20054;-78
2023/04/26 07:28:45;;;;;;;12.35;2.67;;;;;;;;;;4991066;28;20069;-78
2023/04/26 07:31:11;;;;;;;8.75;2.80;;;;;;;;;;4992324;28;20046;-77
2023/04/26 07:33:37;;;;;;;10.32;3.42;;;;;;;;;;4991834;28;20501;-77
2023/04/26 07:36:04;;;;;;;11.98;2.95;;;;;;;;;;4992018;28;20042;-77
2023/04/26 07:38:30;;;;;;;10.25;2.97;;;;;;;;;;4991313;28;20026;-77
2023/04/26 07:40:57;;;;;;;8.73;2.78;;;;;;;;;;4992115;28;20524;-76
2023/04/26 07:43:23;;;;;;;9.27;2.72;;;;;;;;;;4992399;28;20078;-77
2023/04/26 07:45:49;;;;;;;7.07;2.25;;;;;;;;;;4992034;28;20025;-77
2023/04/26 07:48:15;;;;;;;12.60;2.33;;;;;;;;;;4973662;28;20026;-76
2023/04/26 07:50:41;;;;;;;8.10;2.05;;;;;;;;;;4992260;28;20097;-77
2023/04/26 07:53:07;;;;;;;12.93;2.67;;;;;;;;;;4991600;28;20026;-76
2023/04/26 07:55:33;;;;;;;9.75;2.20;;;;;;;;;;4991553;28;20476;-76
2023/04/26 07:57:59;;;;;;;7.20;2.25;;;;;;;;;;4973405;28;20485;-76
2023/04/26 08:00:25;;;;;;;4.50;1.77;;;;;;;;;;4990417;28;20034;-76
2023/04/26 08:02:52;;;;;;;7.50;2.30;;;;;;;;;;4991464;28;20022;-76
2023/04/26 08:05:18;;;;;;;8.77;2.05;;;;;;;;;;4991532;28;20027;-76
2023/04/26 08:07:44;;;;;;;6.95;2.00;;;;;;;;;;4991486;28;20046;-76
2023/04/26 08:10:10;;;;;;;8.95;2.38;;;;;;;;;;4991873;28;20142;-76
2023/04/26 08:12:37;;;;;;;10.13;2.40;;;;;;;;;;4992693;28;20047;-76
2023/04/26 08:15:04;;;;;;;8.98;2.40;;;;;;;;;;4991999;28;20757;-76
2023/04/26 08:17:31;;;;;;;6.03;2.13;;;;;;;;;;4990715;28;20034;-76
2023/04/26 08:19:57;;;;;;;11.07;3.08;;;;;;;;;;4991429;28;20041;-75
2023/04/26 08:22:23;;;;;;;8.85;2.45;;;;;;;;;;4991726;28;20058;-76
2023/04/26 08:24:50;;;;;;;7.65;1.88;;;;;;;;;;4993099;28;20544;-75
2023/04/26 08:27:18;;;;;;;6.78;2.25;;;;;;;;;;4976380;28;20034;-75
2023/04/26 08:29:44;;;;;;;6.05;2.08;;;;;;;;;;5013789;28;20026;-76
2023/04/26 08:32:10;;;;;;;10.45;2.45;;;;;;;;;;5014347;28;20388;-76
2023/04/26 08:34:36;;;;;;;14.68;2.63;;;;;;;;;;5014405;28;20026;-76
2023/04/26 08:37:02;;;;;;;6.78;2.28;;;;;;;;;;4996597;28;20026;-76
2023/04/26 08:39:28;;;;;;;9.15;2.33;;;;;;;;;;5014825;28;20455;-75
2023/04/26 08:41:54;;;;;;;6.07;2.15;;;;;;;;;;5010518;28;20113;-75
2023/04/26 08:44:23;;;;;;;8.65;2.45;;;;;;;;;;4992800;28;20030;-74
2023/04/26 08:47:08;;;;;;;5.75;2.25;;;;;;;;;;4995285;28;20478;-75
2023/04/26 08:49:41;;;;;;;7.22;2.42;;;;;;;;;;4995625;28;20034;-75
2023/04/26 08:52:21;;;;;;;6.65;2.38;;;;;;;;;;4995099;28;20027;-75
2023/04/26 08:54:48;;;;;;;13.38;3.38;;;;;;;;;;4994948;28;20046;-77
2023/04/26 08:57:14;;;;;;;14.85;2.38;;;;;;;;;;4976969;28;20030;-75
2023/04/26 08:59:42;;;;;;;9.88;3.20;;;;;;;;;;4994435;28;20022;-75
2023/04/26 09:02:10;;;;;;;9.20;2.63;;;;;;;;;;4992889;28;20018;-75
2023/04/26 09:04:36;;;;;;;11.07;2.85;;;;;;;;;;4993140;28;20034;-76
2023/04/26 09:07:04;;;;;;;11.82;2.22;;;;;;;;;;4993024;28;20069;-75
2023/04/26 09:09:39;;;;;;;9.80;3.00;;;;;;;;;;4991216;28;20027;-77
2023/04/26 09:12:06;;;;;;;7.35;2.30;;;;;;;;;;4991876;28;20048;-75
2023/04/26 09:14:32;;;;;;;9.27;2.63;;;;;;;;;;4974506;28;20026;-75
2023/04/26 09:16:58;;;;;;;8.80;2.30;;;;;;;;;;4994038;28;20019;-75
2023/04/26 09:19:36;;;;;;;9.10;2.13;;;;;;;;;;4977019;28;20022;-75
2023/04/26 09:22:02;;;;;;;6.38;2.15;;;;;;;;;;4994167;28;20026;-75
2023/04/26 09:24:29;;;;;;;6.60;2.22;;;;;;;;;;4994080;28;20544;-76
2023/04/26 09:27:04;;;;;;;7.18;2.38;;;;;;;;;;4976432;28;20469;-76
2023/04/26 09:29:30;;;;;;;4.65;2.28;;;;;;;;;;4986092;28;20034;-76
2023/04/26 09:31:57;;;;;;;10.48;2.80;;;;;;;;;;4974402;28;20039;-75
2023/04/26 09:34:23;;;;;;;7.60;2.47;;;;;;;;;;4974474;28;20030;-76
2023/04/26 09:36:50;;;;;;;8.48;2.67;;;;;;;;;;4974518;28;20482;-75
2023/04/26 09:39:32;;;;;;;6.38;2.20;;;;;;;;;;4975939;28;20058;-75
2023/04/26 09:41:58;;;;;;;10.57;3.05;;;;;;;;;;4974464;28;20370;-76
2023/04/26 09:44:24;;;;;;;8.68;3.03;;;;;;;;;;4974580;28;20022;-75
2023/04/26 09:47:20;;;;;;;8.57;2.58;;;;;;;;;;4974365;28;20027;-76
2023/04/26 09:49:47;;;;;;;4.35;1.90;;;;;;;;;;4964764;28;20054;-76
2023/04/26 09:52:15;;;;;;;7.60;2.63;;;;;;;;;;4974276;28;20019;-76
2023/04/26 09:54:44;;;;;;;6.90;2.42;;;;;;;;;;4956839;28;20031;-75
2023/04/26 09:57:14;;;;;;;8.68;2.30;;;;;;;;;;4973823;28;20023;-75
2023/04/26 09:59:43;;;;;;;7.80;2.38;;;;;;;;;;4974492;28;20405;-75
2023/04/26 10:02:18;;;;;;;6.57;2.08;;;;;;;;;;4973858;28;20022;-75
2023/04/26 10:04:46;;;;;;;7.57;2.22;;;;;;;;;;4973856;28;20031;-75
2023/04/26 10:07:12;;;;;;;9.15;2.53;;;;;;;;;;4973905;28;20026;-75
2023/04/26 10:09:38;;;;;;;8.93;2.40;;;;;;;;;;4974020;28;20026;-76
2023/04/26 10:12:04;;;;;;;8.63;2.85;;;;;;;;;;4973856;28;20037;-74
2023/04/26 10:14:31;;;;;;;7.38;2.47;;;;;;;;;;4973910;28;20501;-76
2023/04/26 10:16:57;;;;;;;8.18;1.85;;;;;;;;;;4956317;28;20031;-75
2023/04/26 10:19:23;;;;;;;5.47;2.25;;;;;;;;;;4973719;28;20038;-76
2023/04/26 10:21:51;;;;;;;9.07;2.42;;;;;;;;;;4974037;28;20022;-77
2023/04/26 10:24:17;;;;;;;8.88;2.08;;;;;;;;;;4973970;28;20026;-76
2023/04/26 10:26:53;;;;;;;5.78;1.88;;;;;;;;;;4974285;28;20034;-76
2023/04/26 10:29:27;;;;;;;8.98;2.40;;;;;;;;;;4956520;28;20031;-77
2023/04/26 10:32:04;;;;;;;6.97;1.98;;;;;;;;;;4974813;28;20050;-77
2023/04/26 10:34:31;;;;;;;7.50;2.10;;;;;;;;;;4976432;28;20038;-77
2023/04/26 10:37:10;;;;;;;13.32;2.25;;;;;;;;;;4975746;28;20081;-76
2023/04/26 10:39:36;;;;;;;6.20;2.22;;;;;;;;;;4973731;28;20061;-76
2023/04/26 10:42:23;;;;;;;5.40;1.75;;;;;;;;;;4981626;28;20102;-76
2023/04/26 10:44:53;;;;;;;12.95;2.30;;;;;;;;;;4975106;28;20433;-76
2023/04/26 10:47:30;;;;;;;8.55;2.65;;;;;;;;;;4957383;28;20093;-76
2023/04/26 10:50:16;;;;;;;6.18;2.38;;;;;;;;;;4989673;28;20284;-76
2023/04/26 10:53:12;;;;;;;7.68;2.20;;;;;;;;;;4976524;28;20034;-77
2023/04/26 10:55:40;;;;;;;5.40;2.08;;;;;;;;;;4978061;28;20035;-76
2023/04/26 10:58:26;;;;;;;9.07;2.20;;;;;;;;;;4973887;28;20095;-77
2023/04/26 11:01:05;;;;;;;7.40;2.33;;;;;;;;;;4990138;28;20038;-76
2023/04/26 11:03:31;;;;;;;11.57;2.53;;;;;;;;;;4974305;28;20027;-76
2023/04/26 11:05:57;;;;;;;8.48;2.28;;;;;;;;;;4973470;28;20088;-75
2023/04/26 11:08:34;;;;;;;7.57;2.20;;;;;;;;;;4973461;28;20031;-75
2023/04/26 11:11:03;;;;;;;4.03;1.65;;;;;;;;;;4973011;28;20070;-75
2023/04/26 11:13:32;;;;;;;7.80;1.75;;;;;;;;;;4972708;28;20085;-75
2023/04/26 11:16:04;;;;;;;6.90;2.38;;;;;;;;;;4956007;28;20034;-76
2023/04/26 11:18:34;;;;;;;8.50;2.28;;;;;;;;;;4972513;28;20023;-75
2023/04/26 11:21:01;;;;;;;6.57;1.95;;;;;;;;;;4972884;28;20157;-75
2023/04/26 11:23:27;;;;;;;4.18;2.00;;;;;;;;;;4972872;28;20118;-75
2023/04/26 11:25:54;;;;;;;8.85;1.92;;;;;;;;;;4972785;28;20110;-76
2023/04/26 11:28:22;;;;;;;4.97;2.00;;;;;;;;;;4972573;28;20023;-75
2023/04/26 11:30:49;;;;;;;5.75;2.00;;;;;;;;;;4973711;28;20044;-75
2023/04/26 11:33:21;;;;;;;4.45;1.98;;;;;;;;;;4972986;28;20019;-75
2023/04/26 11:35:47;;;;;;;4.00;1.77;;;;;;;;;;4973420;28;20043;-75
2023/04/26 11:38:14;;;;;;;5.25;1.73;;;;;;;;;;4973027;28;20061;-75
2023/04/26 11:40:40;;;;;;;5.10;1.80;;;;;;;;;;4972874;28;20027;-75
2023/04/26 11:43:07;;;;;;;4.78;1.77;;;;;;;;;;4973062;28;20023;-76
2023/04/26 11:45:34;;;;;;;4.65;2.05;;;;;;;;;;4973029;28;20045;-76
2023/04/26 11:48:01;;;;;;;8.88;2.42;;;;;;;;;;4972458;28;20400;-76
2023/04/26 11:50:27;;;;;;;7.18;1.83;;;;;;;;;;4972647;28;20031;-76
2023/04/26 11:52:55;;;;;;;6.68;1.90;;;;;;;;;;4972979;28;20074;-75
2023/04/26 11:55:24;;;;;;;5.70;2.55;;;;;;;;;;4972874;28;20019;-76
2023/04/26 11:57:50;;;;;;;10.82;2.35;;;;;;;;;;4973089;28;20520;-75
2023/04/26 12:00:18;;;;;;;6.72;2.60;;;;;;;;;;4976314;28;20041;-75
2023/04/26 12:02:45;;;;;;;5.93;2.25;;;;;;;;;;4976536;28;20489;-76
2023/04/26 12:05:31;;;;;;;6.35;2.78;;;;;;;;;;4976604;28;20042;-74
2023/04/26 12:07:59;;;;;;;4.68;2.00;;;;;;;;;;4976952;28;20072;-76
2023/04/26 12:10:26;;;;;;;9.32;2.22;;;;;;;;;;4976357;28;20034;-75
2023/04/26 12:12:55;;;;;;;5.80;2.95;;;;;;;;;;4977421;28;20035;-76
2023/04/26 12:15:33;;;;;;;8.77;2.63;;;;;;;;;;4960629;28;20034;-74
2023/04/26 12:18:00;;;;;;;5.93;2.08;;;;;;;;;;4975839;28;20022;-75
2023/04/26 12:20:27;;;;;;;5.25;2.60;;;;;;;;;;4976055;28;20027;-74
2023/04/26 12:23:00;;;;;;;7.22;2.55;;;;;;;;;;4975497;28;20030;-75
2023/04/26 12:25:26;;;;;;;12.90;3.03;;;;;;;;;;4958303;28;20037;-75
2023/04/26 12:27:53;;;;;;;8.95;2.47;;;;;;;;;;4975449;28;20035;-75
2023/04/26 12:30:19;;;;;;;6.05;2.00;;;;;;;;;;4975780;28;20375;-75
2023/04/26 12:32:45;;;;;;;6.70;2.30;;;;;;;;;;4975508;28;20153;-75
2023/04/26 12:35:11;;;;;;;9.40;2.38;;;;;;;;;;4975826;28;20023;-74
2023/04/26 12:37:37;;;;;;;9.90;2.60;;;;;;;;;;4975052;28;20255;-73
2023/04/26 12:40:03;;;;;;;8.27;2.42;;;;;;;;;;4975797;28;20030;-75
2023/04/26 12:42:29;;;;;;;6.93;2.33;;;;;;;;;;4975497;28;20038;-75
2023/04/26 12:44:55;;;;;;;4.50;2.30;;;;;;;;;;4975533;28;20030;-73
2023/04/26 12:47:21;;;;;;;9.40;2.58;;;;;;;;;;4974762;28;20103;-75
2023/04/26 12:49:47;;;;;;;8.23;2.55;;;;;;;;;;4975287;28;20027;-74
2023/04/26 12:52:13;;;;;;;6.00;2.47;;;;;;;;;;4974993;28;20085;-74
2023/04/26 12:54:39;;;;;;;6.03;2.38;;;;;;;;;;4975168;28;20077;-75
2023/04/26 12:57:05;;;;;;;8.00;2.70;;;;;;;;;;4974876;28;20023;-75
2023/04/26 12:59:31;;;;;;;7.82;2.50;;;;;;;;;;4975183;28;20042;-74
2023/04/26 13:01:57;;;;;;;6.60;2.22;;;;;;;;;;4974965;28;20074;-75
2023/04/26 13:04:23;;;;;;;12.02;2.90;;;;;;;;;;4974894;28;20035;-74
2023/04/26 13:06:49;;;;;;;7.10;2.47;;;;;;;;;;4974900;28;20485;-74
2023/04/26 13:09:15;;;;;;;5.05;1.98;;;;;;;;;;4974497;28;20027;-75
2023/04/26 13:11:41;;;;;;;5.53;1.73;;;;;;;;;;4974735;28;20133;-74
2023/04/26 13:14:08;;;;;;;5.25;2.20;;;;;;;;;;4974700;28;20121;-74
2023/04/26 13:16:34;;;;;;;9.65;2.55;;;;;;;;;;4974574;28;20027;-75
2023/04/26 13:19:00;;;;;;;6.85;2.30;;;;;;;;;;4957031;28;20034;-76
2023/04/26 13:21:26;;;;;;;8.85;2.60;;;;;;;;;;4957422;28;20030;-74
2023/04/26 13:23:52;;;;;;;5.95;2.50;;;;;;;;;;4974568;28;20030;-75
2023/04/26 13:26:18;;;;;;;8.77;2.70;;;;;;;;;;4974537;28;20023;-75
2023/04/26 13:28:44;;;;;;;8.00;2.55;;;;;;;;;;4974263;28;20110;-75
2023/04/26 13:31:10;;;;;;;7.95;2.70;;;;;;;;;;4974613;28;20501;-75
2023/04/26 13:33:36;;;;;;;5.13;2.25;;;;;;;;;;4974453;28;20026;-73
2023/04/26 13:36:02;;;;;;;4.20;2.22;;;;;;;;;;4973933;28;20050;-74
2023/04/26 13:38:29;;;;;;;7.90;2.80;;;;;;;;;;4974129;28;20023;-76
2023/04/26 13:40:55;;;;;;;7.18;2.20;;;;;;;;;;4956161;28;20596;-76
2023/04/26 13:43:21;;;;;;;7.30;2.50;;;;;;;;;;4974280;28;20429;-76
2023/04/26 13:45:47;;;;;;;9.88;2.38;;;;;;;;;;4974475;28;20014;-76
2023/04/26 13:48:13;;;;;;;7.20;2.63;;;;;;;;;;4974044;28;20035;-77
2023/04/26 13:50:39;;;;;;;7.47;2.60;;;;;;;;;;4973409;28;20046;-75
2023/04/26 13:53:05;;;;;;;7.60;2.17;;;;;;;;;;4973007;28;20023;-75
2023/04/26 13:55:31;;;;;;;15.27;3.08;;;;;;;;;;4972544;28;20026;-75
2023/04/26 13:57:58;;;;;;;8.68;2.75;;;;;;;;;;4972250;28;20022;-76
2023/04/26 14:00:24;;;;;;;6.28;2.63;;;;;;;;;;4972141;28;20031;-75
2023/04/26 14:02:50;;;;;;;7.95;2.40;;;;;;;;;;4971927;28;20062;-75
2023/04/26 14:05:16;;;;;;;6.47;2.00;;;;;;;;;;4972594;28;20023;-75
2023/04/26 14:07:42;;;;;;;9.07;1.95;;;;;;;;;;4956194;28;20027;-74
2023/04/26 14:10:09;;;;;;;10.68;2.40;;;;;;;;;;4973891;28;20482;-75
2023/04/26 14:12:35;;;;;;;6.43;2.20;;;;;;;;;;4973824;28;20513;-76
2023/04/26 14:15:03;;;;;;;6.68;2.30;;;;;;;;;;4973743;28;20037;-76
2023/04/26 14:17:29;;;;;;;11.13;2.70;;;;;;;;;;4973382;28;20030;-75
2023/04/26 14:19:55;;;;;;;7.43;1.90;;;;;;;;;;4973586;28;20023;-74
2023/04/26 14:22:21;;;;;;;5.40;1.80;;;;;;;;;;4972712;28;20031;-74
2023/04/26 14:24:47;;;;;;;7.22;1.90;;;;;;;;;;4973443;28;20030;-75
2023/04/26 14:27:13;;;;;;;8.77;2.78;;;;;;;;;;4973206;28;20042;-74
2023/04/26 14:29:40;;;;;;;5.65;1.90;;;;;;;;;;4973407;28;20027;-76
2023/04/26 14:32:06;;;;;;;7.97;2.42;;;;;;;;;;4973291;28;20363;-73
2023/04/26 14:34:34;;;;;;;11.85;2.72;;;;;;;;;;4973326;28;20033;-74
2023/04/26 14:37:02;;;;;;;5.53;1.98;;;;;;;;;;4973553;28;20482;-75
2023/04/26 14:39:28;;;;;;;9.63;2.75;;;;;;;;;;4973688;28;20027;-76
2023/04/26 14:41:55;;;;;;;7.53;2.25;;;;;;;;;;4973351;28;20023;-77